Time;durP1;ratioP1;P1;durP2;ratioP2;P2;SDS_P1;SDS_P2;PMS_P1;PMS_P2;Temp;Humidity;BMP_temperature;BMP_pressure;BME280_temperature;BME280_humidity;BME280_pressure;Samples;Min_cycle;Max_cycle;Signal;HPM_P1;HPM_P2
2020/12/26 00:00:46;;;;;;;6.40;2.97;;;3.70;99.90;;;;;;4966688;28;20195;-80
2020/12/26 00:03:13;;;;;;;6.10;3.90;;;3.70;99.90;;;;;;4997663;28;20401;-80
2020/12/26 00:05:39;;;;;;;7.80;4.33;;;3.40;99.90;;;;;;4986155;28;20894;-80
2020/12/26 00:08:05;;;;;;;4.50;2.87;;;3.50;99.90;;;;;;4969487;28;20416;-80
2020/12/26 00:10:32;;;;;;;5.00;3.43;;;3.60;99.90;;;;;;4968995;28;20185;-79
2020/12/26 00:13:03;;;;;;;4.50;3.47;;;3.60;99.90;;;;;;4962174;28;20419;-80
2020/12/26 00:15:30;;;;;;;3.33;3.13;;;3.50;99.90;;;;;;4931165;29;20415;-80
2020/12/26 00:17:55;;;;;;;4.83;3.97;;;3.60;99.90;;;;;;4946138;29;20414;-80
2020/12/26 00:20:22;;;;;;;9.80;3.80;;;3.60;99.90;;;;;;4929256;29;20516;-80
2020/12/26 00:22:47;;;;;;;5.23;3.73;;;3.60;99.90;;;;;;4994729;28;20774;-80
2020/12/26 00:25:13;;;;;;;5.77;3.80;;;3.60;99.90;;;;;;4967895;28;20933;-80
2020/12/26 00:27:40;;;;;;;4.30;3.13;;;3.60;99.90;;;;;;5000531;28;20253;-80
2020/12/26 00:30:07;;;;;;;5.63;3.27;;;3.70;99.90;;;;;;4983224;28;20402;-80
2020/12/26 00:32:34;;;;;;;10.67;3.60;;;3.50;99.90;;;;;;4984117;28;20910;-80
2020/12/26 00:35:00;;;;;;;6.53;4.03;;;3.50;99.90;;;;;;4967829;28;20500;-80
2020/12/26 00:37:26;;;;;;;4.37;3.10;;;3.50;99.90;;;;;;4944704;29;20390;-79
2020/12/26 00:39:52;;;;;;;11.83;3.93;;;3.40;99.90;;;;;;4950841;29;20464;-80
2020/12/26 00:42:17;;;;;;;5.07;3.80;;;3.30;99.90;;;;;;4954548;29;20183;-80
2020/12/26 00:44:44;;;;;;;3.20;2.90;;;3.30;99.90;;;;;;4987034;28;20194;-80
2020/12/26 00:47:09;;;;;;;2.97;2.53;;;3.40;99.90;;;;;;4992243;28;20420;-79
2020/12/26 00:49:35;;;;;;;4.90;3.60;;;3.40;99.90;;;;;;4992217;28;20578;-79
2020/12/26 00:52:01;;;;;;;4.77;3.90;;;3.40;99.90;;;;;;4992763;28;20220;-80
2020/12/26 00:54:26;;;;;;;3.47;2.83;;;3.20;99.90;;;;;;4991810;28;20178;-80
2020/12/26 00:56:52;;;;;;;3.57;2.83;;;3.10;99.90;;;;;;4991839;28;20213;-79
2020/12/26 00:59:22;;;;;;;7.83;2.93;;;2.70;99.90;;;;;;4953407;29;20210;-80
2020/12/26 01:01:54;;;;;;;6.40;3.10;;;2.80;99.90;;;;;;4936941;29;20413;-80
2020/12/26 01:04:19;;;;;;;3.60;2.50;;;2.90;99.90;;;;;;4937990;29;20452;-80
2020/12/26 01:06:51;;;;;;;5.47;2.87;;;3.00;99.90;;;;;;4968355;29;20891;-80
2020/12/26 01:09:16;;;;;;;4.40;3.40;;;3.10;99.90;;;;;;4971348;28;20697;-80
2020/12/26 01:11:42;;;;;;;3.60;2.70;;;3.10;99.90;;;;;;5007023;28;20380;-79
2020/12/26 01:14:08;;;;;;;2.47;2.27;;;3.00;99.90;;;;;;5014634;28;20252;-80
2020/12/26 01:16:34;;;;;;;3.50;2.90;;;2.80;99.90;;;;;;4997026;28;20177;-80
2020/12/26 01:18:59;;;;;;;5.50;3.20;;;2.60;99.90;;;;;;5047213;28;20287;-79
2020/12/26 01:21:28;;;;;;;3.40;3.17;;;2.30;99.90;;;;;;5046044;28;20232;-80
2020/12/26 01:23:54;;;;;;;2.50;2.30;;;2.00;99.90;;;;;;5013266;28;20403;-80
2020/12/26 01:26:20;;;;;;;4.23;3.10;;;1.80;99.90;;;;;;5047028;28;20970;-80
2020/12/26 01:28:46;;;;;;;4.47;2.73;;;1.80;99.90;;;;;;5030356;28;20330;-79
2020/12/26 01:31:13;;;;;;;6.80;2.30;;;1.90;99.90;;;;;;5029207;28;20385;-80
2020/12/26 01:33:39;;;;;;;3.30;2.70;;;2.10;99.90;;;;;;5049500;28;20214;-80
2020/12/26 01:36:13;;;;;;;4.60;2.67;;;2.30;99.90;;;;;;5060408;28;20452;-78
2020/12/26 01:38:39;;;;;;;2.50;2.30;;;2.40;99.90;;;;;;5070729;28;20933;-80
2020/12/26 01:41:16;;;;;;;6.23;2.30;;;2.40;99.90;;;;;;5020886;28;20403;-80
2020/12/26 01:44:00;;;;;;;5.03;3.70;;;2.50;99.90;;;;;;4990283;28;20402;-79
2020/12/26 01:46:30;;;;;;;2.60;2.37;;;2.60;99.90;;;;;;5021554;28;20407;-80
2020/12/26 01:49:00;;;;;;;3.90;2.43;;;2.70;99.90;;;;;;5021904;28;20406;-80
2020/12/26 01:51:30;;;;;;;3.90;2.67;;;2.70;99.90;;;;;;5038270;28;20764;-80
2020/12/26 01:54:00;;;;;;;2.20;2.10;;;2.70;99.90;;;;;;4991092;28;20427;-79
2020/12/26 01:56:27;;;;;;;4.50;3.23;;;2.70;99.90;;;;;;5006420;28;20396;-80
2020/12/26 01:58:59;;;;;;;5.33;2.47;;;2.80;99.90;;;;;;5007586;28;20458;-80
2020/12/26 02:01:41;;;;;;;3.20;2.20;;;2.80;99.90;;;;;;5006287;28;20408;-80
2020/12/26 02:04:13;;;;;;;6.80;2.30;;;2.80;99.90;;;;;;5003852;28;20404;-79
2020/12/26 02:06:43;;;;;;;4.20;3.03;;;2.80;99.90;;;;;;4984130;28;20408;-79
2020/12/26 02:09:12;;;;;;;1.93;1.73;;;2.80;99.90;;;;;;4930429;29;20419;-80
2020/12/26 02:11:39;;;;;;;6.50;2.80;;;2.80;99.90;;;;;;4969233;28;20418;-80
2020/12/26 02:14:10;;;;;;;3.63;2.60;;;2.70;99.90;;;;;;4982564;28;20422;-81
2020/12/26 02:16:52;;;;;;;3.27;2.43;;;2.70;99.90;;;;;;4982499;28;20414;-80
2020/12/26 02:19:22;;;;;;;3.60;2.60;;;2.60;99.90;;;;;;4966027;28;20420;-80
2020/12/26 02:21:49;;;;;;;2.23;2.03;;;2.60;99.90;;;;;;4966230;28;20450;-80
2020/12/26 02:24:15;;;;;;;2.63;2.43;;;2.60;99.90;;;;;;4982152;28;20409;-80
2020/12/26 02:26:45;;;;;;;3.70;2.80;;;2.60;99.90;;;;;;4982252;28;20396;-80
2020/12/26 02:29:11;;;;;;;3.63;2.90;;;2.60;99.90;;;;;;4963996;28;20393;-79
2020/12/26 02:31:37;;;;;;;1.70;1.60;;;2.60;99.90;;;;;;4979535;28;20418;-80
2020/12/26 02:34:03;;;;;;;2.87;2.47;;;2.60;99.90;;;;;;4984114;28;20605;-80
2020/12/26 02:36:35;;;;;;;3.50;3.10;;;2.60;99.90;;;;;;4986438;28;20416;-80
2020/12/26 02:39:01;;;;;;;6.50;2.87;;;2.50;99.90;;;;;;5006759;28;20459;-80
2020/12/26 02:41:27;;;;;;;4.00;3.40;;;2.40;99.90;;;;;;5045115;28;20875;-80
2020/12/26 02:43:53;;;;;;;3.93;3.63;;;2.40;99.90;;;;;;5061721;28;20394;-80
2020/12/26 02:46:18;;;;;;;4.63;3.20;;;2.40;99.90;;;;;;5043995;28;20191;-80
2020/12/26 02:48:45;;;;;;;3.63;3.30;;;2.40;99.90;;;;;;5026636;28;20279;-80
2020/12/26 02:51:11;;;;;;;3.20;2.90;;;2.40;99.90;;;;;;5026138;28;20275;-79
2020/12/26 02:53:38;;;;;;;13.80;3.30;;;2.40;99.90;;;;;;5041726;28;20419;-80
2020/12/26 02:56:03;;;;;;;3.87;3.27;;;2.30;99.90;;;;;;5042110;28;20560;-79
2020/12/26 02:58:31;;;;;;;4.03;2.57;;;2.30;99.90;;;;;;5041456;28;20183;-80
2020/12/26 03:01:01;;;;;;;2.50;2.30;;;2.20;99.90;;;;;;5041964;28;20235;-80
2020/12/26 03:03:28;;;;;;;3.23;2.93;;;2.30;99.90;;;;;;5057890;28;20454;-79
2020/12/26 03:05:54;;;;;;;6.10;4.10;;;2.20;99.90;;;;;;5041468;28;20399;-80
2020/12/26 03:08:19;;;;;;;3.67;2.70;;;2.20;99.90;;;;;;5001166;28;20466;-80
2020/12/26 03:10:45;;;;;;;3.10;2.90;;;2.10;99.90;;;;;;5001337;28;20193;-79
2020/12/26 03:13:12;;;;;;;3.13;2.90;;;2.10;99.90;;;;;;5017600;28;20178;-80
2020/12/26 03:15:38;;;;;;;2.37;2.17;;;2.00;99.90;;;;;;5016901;28;20245;-80
2020/12/26 03:18:04;;;;;;;4.47;3.30;;;2.10;99.90;;;;;;5019113;28;20947;-80
2020/12/26 03:20:30;;;;;;;3.30;3.03;;;2.00;99.90;;;;;;5020226;28;20262;-79
2020/12/26 03:22:57;;;;;;;3.10;2.43;;;2.00;99.90;;;;;;5004073;28;20290;-79
2020/12/26 03:25:25;;;;;;;4.57;2.43;;;1.70;99.90;;;;;;4969261;28;20405;-79
2020/12/26 03:27:51;;;;;;;2.73;2.53;;;1.60;99.90;;;;;;4983158;28;20383;-79
2020/12/26 03:30:17;;;;;;;3.10;2.80;;;1.30;99.90;;;;;;5005256;28;20197;-80
2020/12/26 03:32:44;;;;;;;3.10;2.87;;;1.10;99.90;;;;;;5023750;28;20443;-79
2020/12/26 03:35:12;;;;;;;2.97;2.73;;;1.00;99.90;;;;;;5020947;28;20190;-78
2020/12/26 03:37:38;;;;;;;5.10;2.43;;;0.70;99.90;;;;;;5004597;28;20425;-77
2020/12/26 03:40:08;;;;;;;5.47;3.20;;;0.60;99.90;;;;;;4999025;28;20465;-80
2020/12/26 03:42:35;;;;;;;4.00;2.30;;;0.60;99.90;;;;;;4986566;28;20417;-80
2020/12/26 03:45:02;;;;;;;4.17;3.70;;;0.40;99.90;;;;;;4987693;28;20516;-80
2020/12/26 03:47:27;;;;;;;2.67;2.43;;;0.40;99.90;;;;;;4986816;28;20404;-80
2020/12/26 03:49:56;;;;;;;2.17;1.97;;;0.40;99.90;;;;;;4970670;28;20470;-79
2020/12/26 03:52:22;;;;;;;3.20;2.90;;;0.60;99.90;;;;;;4969704;28;20434;-79
2020/12/26 03:54:49;;;;;;;2.27;2.07;;;0.70;99.90;;;;;;4967155;28;20546;-80
2020/12/26 03:57:15;;;;;;;3.67;3.03;;;0.70;99.90;;;;;;4967148;29;20411;-79
2020/12/26 03:59:41;;;;;;;4.50;3.07;;;0.70;99.90;;;;;;4948546;29;20571;-79
2020/12/26 04:02:08;;;;;;;4.60;2.23;;;0.90;99.90;;;;;;4965688;29;20163;-79
2020/12/26 04:04:35;;;;;;;2.33;2.13;;;0.90;99.90;;;;;;4964210;29;20399;-79
2020/12/26 04:07:02;;;;;;;2.40;2.20;;;0.80;99.90;;;;;;4951301;28;20444;-79
2020/12/26 04:09:28;;;;;;;6.83;4.23;;;1.00;99.90;;;;;;4983967;28;21000;-79
2020/12/26 04:11:54;;;;;;;14.40;3.33;;;1.30;99.90;;;;;;4967461;28;20449;-80
2020/12/26 04:14:19;;;;;;;6.47;3.13;;;1.40;99.90;;;;;;4983481;28;20189;-80
2020/12/26 04:16:45;;;;;;;4.60;3.53;;;1.50;99.90;;;;;;4983191;28;20433;-79
2020/12/26 04:19:14;;;;;;;6.43;3.23;;;1.60;99.90;;;;;;4966533;28;20213;-80
2020/12/26 04:21:43;;;;;;;4.00;3.70;;;1.00;99.90;;;;;;4982401;28;20254;-79
2020/12/26 04:24:08;;;;;;;4.83;4.37;;;0.90;99.90;;;;;;4966617;28;20422;-80
2020/12/26 04:26:34;;;;;;;5.10;4.30;;;1.10;99.90;;;;;;4982439;28;20591;-80
2020/12/26 04:29:09;;;;;;;4.10;3.40;;;1.30;99.90;;;;;;5006119;28;20229;-80
2020/12/26 04:31:35;;;;;;;3.53;3.20;;;1.40;99.90;;;;;;5004405;28;20401;-79
2020/12/26 04:34:02;;;;;;;4.00;3.60;;;1.50;99.90;;;;;;5020747;28;20403;-80
2020/12/26 04:36:28;;;;;;;5.20;4.00;;;1.10;99.90;;;;;;4984613;28;20189;-79
2020/12/26 04:38:53;;;;;;;5.03;3.57;;;0.90;99.90;;;;;;4984171;28;20448;-79
2020/12/26 04:41:19;;;;;;;3.83;3.40;;;0.70;99.90;;;;;;4967098;28;20584;-79
2020/12/26 04:43:47;;;;;;;4.10;3.20;;;0.60;99.90;;;;;;4967581;28;20236;-80
2020/12/26 04:46:18;;;;;;;3.90;3.53;;;0.50;99.90;;;;;;4980797;28;20510;-80
2020/12/26 04:49:05;;;;;;;2.60;2.40;;;0.50;99.90;;;;;;5013477;28;20412;-79
2020/12/26 04:51:35;;;;;;;3.20;2.90;;;0.30;99.90;;;;;;5042534;28;20422;-79
2020/12/26 04:54:08;;;;;;;3.40;2.87;;;0.40;99.90;;;;;;4990362;28;20408;-79
2020/12/26 04:56:41;;;;;;;10.40;3.33;;;0.30;99.90;;;;;;5023362;28;20438;-79
2020/12/26 04:59:12;;;;;;;7.43;3.43;;;0.10;99.90;;;;;;4991409;28;20435;-79
2020/12/26 05:01:40;;;;;;;2.33;2.13;;;0.00;99.90;;;;;;5007593;28;20403;-80
2020/12/26 05:04:11;;;;;;;3.17;2.87;;;-0.30;99.90;;;;;;5025125;28;20429;-79
2020/12/26 05:06:46;;;;;;;4.23;3.83;;;-0.30;99.90;;;;;;5006756;28;20419;-80
2020/12/26 05:09:17;;;;;;;3.33;2.63;;;-0.20;99.90;;;;;;4993060;28;20411;-79
2020/12/26 05:11:52;;;;;;;5.03;3.07;;;-0.30;99.90;;;;;;5023316;28;20394;-79
2020/12/26 05:14:20;;;;;;;3.87;3.47;;;-0.30;99.90;;;;;;5041094;28;20391;-79
2020/12/26 05:16:47;;;;;;;4.10;2.90;;;-0.40;99.90;;;;;;5007768;28;20402;-80
2020/12/26 05:19:13;;;;;;;3.43;2.50;;;-0.30;99.90;;;;;;4991592;28;20452;-80
2020/12/26 05:21:39;;;;;;;4.93;2.83;;;-0.30;99.90;;;;;;5027544;28;20455;-78
2020/12/26 05:24:08;;;;;;;3.43;2.80;;;-0.20;99.90;;;;;;5023055;28;20398;-79
2020/12/26 05:26:39;;;;;;;3.30;3.00;;;0.00;99.90;;;;;;5015517;28;20746;-79
2020/12/26 05:29:06;;;;;;;9.57;4.30;;;0.20;99.90;;;;;;5063157;28;20751;-80
2020/12/26 05:31:44;;;;;;;3.47;3.17;;;0.40;99.90;;;;;;5063649;28;20390;-80
2020/12/26 05:34:11;;;;;;;3.47;2.83;;;0.30;99.90;;;;;;5081331;28;20368;-80
2020/12/26 05:36:37;;;;;;;3.07;2.77;;;0.20;99.90;;;;;;5062723;28;20460;-79
2020/12/26 05:39:05;;;;;;;2.87;2.57;;;0.20;99.90;;;;;;5062642;28;20446;-80
2020/12/26 05:41:31;;;;;;;6.00;3.17;;;0.30;99.90;;;;;;5078424;28;20425;-80
2020/12/26 05:44:02;;;;;;;7.33;5.20;;;0.20;99.90;;;;;;5028743;28;20429;-80
2020/12/26 05:46:27;;;;;;;3.73;3.43;;;0.10;99.90;;;;;;5045489;28;20413;-79
2020/12/26 05:48:54;;;;;;;4.73;4.43;;;-0.10;99.90;;;;;;5079124;28;20760;-79
2020/12/26 05:51:25;;;;;;;5.87;3.87;;;0.20;99.90;;;;;;5080576;28;20156;-79
2020/12/26 05:53:57;;;;;;;5.67;4.10;;;0.10;99.90;;;;;;5048531;28;20389;-79
2020/12/26 05:56:28;;;;;;;3.77;2.97;;;0.00;99.90;;;;;;5064210;28;20405;-79
2020/12/26 05:58:59;;;;;;;5.03;3.90;;;0.10;99.90;;;;;;5063858;28;20436;-79
2020/12/26 06:01:25;;;;;;;5.13;4.67;;;0.30;99.90;;;;;;5048502;28;20417;-80
2020/12/26 06:03:51;;;;;;;3.23;2.33;;;-0.10;99.90;;;;;;5080753;28;20402;-80
2020/12/26 06:06:17;;;;;;;3.67;3.00;;;-0.10;99.90;;;;;;5045206;28;20234;-80
2020/12/26 06:08:46;;;;;;;17.03;3.43;;;0.20;99.90;;;;;;5045751;28;20420;-80
2020/12/26 06:11:12;;;;;;;6.17;3.30;;;0.10;99.90;;;;;;5048897;28;20168;-80
2020/12/26 06:13:38;;;;;;;7.20;3.33;;;0.20;99.90;;;;;;5040787;28;20416;-77
2020/12/26 06:16:16;;;;;;;3.60;3.00;;;0.30;99.90;;;;;;5039020;28;20427;-77
2020/12/26 06:18:58;;;;;;;4.47;3.07;;;-0.10;99.90;;;;;;5030520;28;20188;-81
2020/12/26 06:21:26;;;;;;;13.23;3.57;;;-0.20;99.90;;;;;;5022789;28;20434;-80
2020/12/26 06:23:55;;;;;;;7.33;4.80;;;-0.20;99.90;;;;;;4991707;28;20407;-80
2020/12/26 06:26:21;;;;;;;6.83;3.23;;;-0.10;99.90;;;;;;5007711;28;20407;-81
2020/12/26 06:28:48;;;;;;;3.67;2.70;;;-0.10;99.90;;;;;;4992011;28;20403;-81
2020/12/26 06:31:15;;;;;;;3.40;3.10;;;-0.20;99.90;;;;;;5040524;28;20473;-81
2020/12/26 06:33:43;;;;;;;5.23;3.90;;;0.10;99.90;;;;;;5040090;28;20473;-81
2020/12/26 06:36:10;;;;;;;4.40;3.30;;;0.20;99.90;;;;;;5026553;28;20399;-81
2020/12/26 06:38:37;;;;;;;5.27;3.63;;;0.20;99.90;;;;;;5026325;28;20449;-81
2020/12/26 06:41:18;;;;;;;3.90;3.03;;;0.00;99.90;;;;;;5028623;28;20441;-81
2020/12/26 06:43:57;;;;;;;4.20;3.20;;;0.00;99.90;;;;;;5049766;28;20459;-80
2020/12/26 06:46:39;;;;;;;3.90;3.30;;;-0.20;99.90;;;;;;5081449;28;20431;-80
2020/12/26 06:49:23;;;;;;;3.47;3.00;;;-0.30;99.90;;;;;;5023759;28;20407;-81
2020/12/26 06:51:49;;;;;;;5.30;4.60;;;-0.20;99.90;;;;;;5022054;28;20411;-79
2020/12/26 06:54:15;;;;;;;5.20;4.07;;;0.20;99.90;;;;;;5022931;28;20415;-81
2020/12/26 06:56:49;;;;;;;5.73;2.70;;;0.00;99.90;;;;;;5023464;28;20197;-80
2020/12/26 06:59:17;;;;;;;7.37;3.40;;;0.00;99.90;;;;;;5022936;28;20846;-80
2020/12/26 07:01:45;;;;;;;3.73;3.30;;;0.00;99.90;;;;;;4983786;28;20436;-81
2020/12/26 07:04:19;;;;;;;8.53;3.80;;;-0.10;99.90;;;;;;4966724;28;20414;-80
2020/12/26 07:06:49;;;;;;;6.10;3.57;;;0.00;99.90;;;;;;4983657;28;20488;-80
2020/12/26 07:09:17;;;;;;;9.70;4.23;;;0.00;99.90;;;;;;4983053;28;20416;-81
2020/12/26 07:11:48;;;;;;;5.87;3.47;;;0.00;99.90;;;;;;4983982;28;20747;-80
2020/12/26 07:14:35;;;;;;;14.07;5.57;;;-0.10;99.90;;;;;;4984190;28;20417;-80
2020/12/26 07:17:04;;;;;;;4.93;3.87;;;-0.10;99.90;;;;;;4943479;29;20422;-80
2020/12/26 07:19:36;;;;;;;7.30;3.87;;;-0.10;99.90;;;;;;4953634;28;20464;-80
2020/12/26 07:22:06;;;;;;;6.13;3.80;;;0.20;99.90;;;;;;4996481;28;20563;-80
2020/12/26 07:24:36;;;;;;;6.93;4.03;;;0.10;99.90;;;;;;5017804;28;20402;-80
2020/12/26 07:27:24;;;;;;;3.80;3.37;;;-0.10;99.90;;;;;;5017581;28;20410;-80
2020/12/26 07:29:59;;;;;;;3.33;3.03;;;0.00;99.90;;;;;;4984996;28;20407;-80
2020/12/26 07:32:45;;;;;;;4.20;2.93;;;0.10;99.90;;;;;;5015942;28;20460;-80
2020/12/26 07:35:29;;;;;;;4.90;4.03;;;0.00;99.90;;;;;;5040665;28;20421;-80
2020/12/26 07:37:59;;;;;;;6.40;3.83;;;0.00;99.90;;;;;;5007527;28;20430;-80
2020/12/26 07:40:29;;;;;;;8.50;4.17;;;-0.10;99.90;;;;;;5023639;28;20440;-80
2020/12/26 07:42:57;;;;;;;5.23;4.83;;;-0.10;99.90;;;;;;5023663;28;20413;-80
2020/12/26 07:45:25;;;;;;;6.77;4.87;;;0.10;99.90;;;;;;5025812;28;20395;-80
2020/12/26 07:47:53;;;;;;;6.60;3.97;;;0.00;99.90;;;;;;5061367;28;20492;-80
2020/12/26 07:50:21;;;;;;;4.37;3.50;;;0.20;99.90;;;;;;5083467;28;20370;-80
2020/12/26 07:52:53;;;;;;;6.43;4.07;;;0.20;99.90;;;;;;5064885;28;20423;-79
2020/12/26 07:55:23;;;;;;;5.63;4.37;;;0.00;99.90;;;;;;5081431;28;20477;-79
2020/12/26 07:58:00;;;;;;;6.67;3.80;;;0.20;99.90;;;;;;5083132;28;20423;-80
2020/12/26 08:00:27;;;;;;;4.40;3.97;;;0.20;99.90;;;;;;5065566;28;20429;-80
2020/12/26 08:02:56;;;;;;;4.63;3.10;;;0.20;99.90;;;;;;5098626;28;20491;-80
2020/12/26 08:05:25;;;;;;;5.13;3.87;;;0.30;99.90;;;;;;5102395;28;20389;-80
2020/12/26 08:07:51;;;;;;;4.27;3.77;;;0.30;99.90;;;;;;5084345;28;20460;-80
2020/12/26 08:10:23;;;;;;;8.80;5.20;;;0.30;99.90;;;;;;5084050;28;20475;-80
2020/12/26 08:12:56;;;;;;;4.03;3.60;;;0.70;99.90;;;;;;5086596;28;20415;-80
2020/12/26 08:15:24;;;;;;;3.93;3.73;;;0.60;99.90;;;;;;5070878;28;20412;-78
2020/12/26 08:17:55;;;;;;;7.80;4.73;;;0.50;99.90;;;;;;5084088;28;20405;-80
2020/12/26 08:20:26;;;;;;;6.77;4.17;;;0.00;99.90;;;;;;5052869;28;20463;-80
2020/12/26 08:22:52;;;;;;;6.67;4.10;;;0.20;99.90;;;;;;5051930;28;20404;-80
2020/12/26 08:25:19;;;;;;;7.90;4.10;;;0.40;99.90;;;;;;5068954;28;20397;-80
2020/12/26 08:27:50;;;;;;;6.47;3.97;;;0.50;99.90;;;;;;5068050;28;20416;-80
2020/12/26 08:30:26;;;;;;;8.37;5.17;;;0.30;99.90;;;;;;5087223;28;20467;-80
2020/12/26 08:33:26;;;;;;;4.37;3.97;;;0.40;99.90;;;;;;5070028;28;20415;-80
2020/12/26 08:36:06;;;;;;;9.30;4.87;;;0.40;99.90;;;;;;5103485;28;20420;-80
2020/12/26 08:38:45;;;;;;;5.80;5.23;;;0.30;99.90;;;;;;5071260;28;20396;-80
2020/12/26 08:41:17;;;;;;;6.57;5.90;;;0.30;99.90;;;;;;5053906;28;20438;-80
2020/12/26 08:43:43;;;;;;;6.63;5.33;;;0.30;99.90;;;;;;5085691;28;20385;-80
2020/12/26 08:46:15;;;;;;;9.80;5.10;;;0.50;99.90;;;;;;5057832;28;20381;-80
2020/12/26 08:48:42;;;;;;;10.63;4.27;;;0.60;99.90;;;;;;5075101;28;20373;-80
2020/12/26 08:51:26;;;;;;;5.90;4.67;;;0.50;99.90;;;;;;5051844;28;20399;-80
2020/12/26 08:53:53;;;;;;;8.70;4.97;;;0.60;99.90;;;;;;5070270;28;20766;-80
2020/12/26 08:56:34;;;;;;;7.90;6.73;;;0.60;99.90;;;;;;5069231;28;20395;-80
2020/12/26 08:59:00;;;;;;;5.97;4.27;;;0.90;99.90;;;;;;5085313;28;20777;-80
2020/12/26 09:01:26;;;;;;;8.63;4.77;;;1.30;99.90;;;;;;5067616;28;20618;-80
2020/12/26 09:03:56;;;;;;;12.10;4.57;;;1.30;99.90;;;;;;5084942;28;20158;-80
2020/12/26 09:06:34;;;;;;;7.67;5.57;;;1.50;99.90;;;;;;5086416;28;20399;-80
2020/12/26 09:09:20;;;;;;;7.93;4.33;;;0.90;99.90;;;;;;5070134;28;20411;-80
2020/12/26 09:11:59;;;;;;;7.33;6.17;;;0.90;99.90;;;;;;5085243;28;20756;-80
2020/12/26 09:14:25;;;;;;;12.10;5.43;;;0.90;99.90;;;;;;5067258;28;20378;-79
2020/12/26 09:16:59;;;;;;;6.73;5.20;;;1.00;99.90;;;;;;5067583;28;20744;-79
2020/12/26 09:19:40;;;;;;;8.00;6.37;;;1.40;99.90;;;;;;5067489;28;20209;-79
2020/12/26 09:22:10;;;;;;;12.00;5.47;;;1.10;99.90;;;;;;5085051;28;20642;-79
2020/12/26 09:24:37;;;;;;;5.70;5.20;;;1.40;99.90;;;;;;5102908;28;20435;-79
2020/12/26 09:27:03;;;;;;;4.87;4.43;;;1.70;99.90;;;;;;5069536;28;20393;-79
2020/12/26 09:29:29;;;;;;;7.57;5.10;;;1.40;99.90;;;;;;5069807;28;20397;-79
2020/12/26 09:31:55;;;;;;;14.20;6.50;;;1.40;99.90;;;;;;5074210;28;20400;-79
2020/12/26 09:34:25;;;;;;;10.17;5.30;;;1.40;99.90;;;;;;5089699;28;20412;-79
2020/12/26 09:37:03;;;;;;;5.97;4.10;;;1.60;99.90;;;;;;5091668;28;20405;-79
2020/12/26 09:39:29;;;;;;;8.53;4.80;;;1.50;99.90;;;;;;5092094;28;20448;-79
2020/12/26 09:41:55;;;;;;;9.00;4.90;;;1.30;99.90;;;;;;5108376;28;20486;-79
2020/12/26 09:44:20;;;;;;;6.23;5.63;;;1.50;99.90;;;;;;5077384;28;20821;-76
2020/12/26 09:46:46;;;;;;;5.70;5.20;;;1.30;99.90;;;;;;5100691;28;20183;-79
2020/12/26 09:49:12;;;;;;;7.33;5.70;;;1.40;99.90;;;;;;5068152;28;20167;-78
2020/12/26 09:51:39;;;;;;;6.20;4.07;;;1.20;99.90;;;;;;5067061;28;20169;-78
2020/12/26 09:54:04;;;;;;;8.50;5.37;;;1.40;99.90;;;;;;5078595;28;20224;-78
2020/12/26 09:56:33;;;;;;;5.20;4.77;;;1.30;99.90;;;;;;5078150;28;20385;-80
2020/12/26 09:59:01;;;;;;;5.43;4.73;;;1.30;99.90;;;;;;5033906;28;20523;-80
2020/12/26 10:01:30;;;;;;;18.20;5.50;;;1.50;99.90;;;;;;5030647;28;20483;-78
2020/12/26 10:03:56;;;;;;;4.20;3.50;;;1.80;99.90;;;;;;5028562;28;20808;-78
2020/12/26 10:06:24;;;;;;;8.30;4.93;;;2.00;99.90;;;;;;4990597;28;20264;-79
2020/12/26 10:08:51;;;;;;;10.43;5.03;;;2.20;99.90;;;;;;5006086;28;20383;-80
2020/12/26 10:11:18;;;;;;;7.73;4.93;;;1.70;99.90;;;;;;5006541;28;20182;-80
2020/12/26 10:13:46;;;;;;;7.47;4.67;;;1.60;99.90;;;;;;5006551;28;20413;-79
2020/12/26 10:16:16;;;;;;;8.77;4.90;;;1.80;99.90;;;;;;5006322;28;20420;-80
2020/12/26 10:18:41;;;;;;;6.07;5.00;;;1.60;99.90;;;;;;5006445;28;20426;-80
2020/12/26 10:21:15;;;;;;;7.47;6.10;;;1.70;99.90;;;;;;4991914;28;20456;-79
2020/12/26 10:23:42;;;;;;;4.37;3.93;;;1.60;99.90;;;;;;5003486;28;20484;-80
2020/12/26 10:26:08;;;;;;;8.03;6.33;;;1.70;99.90;;;;;;5001734;28;20456;-79
2020/12/26 10:28:34;;;;;;;8.63;5.37;;;1.70;99.90;;;;;;5004391;28;20552;-79
2020/12/26 10:31:02;;;;;;;8.00;6.27;;;1.60;99.90;;;;;;5055526;28;20412;-79
2020/12/26 10:33:28;;;;;;;12.03;5.70;;;1.80;99.90;;;;;;5025325;28;20802;-78
2020/12/26 10:35:56;;;;;;;8.10;6.10;;;1.70;99.90;;;;;;4966917;28;20418;-78
2020/12/26 10:38:22;;;;;;;15.40;6.30;;;1.60;99.90;;;;;;5000793;28;20410;-80
2020/12/26 10:40:48;;;;;;;8.97;5.40;;;1.80;99.90;;;;;;4966542;28;20457;-80
2020/12/26 10:43:16;;;;;;;6.83;5.37;;;2.10;99.90;;;;;;4948046;28;20444;-80
2020/12/26 10:45:45;;;;;;;12.63;6.10;;;1.90;99.90;;;;;;4949648;28;20410;-80
2020/12/26 10:48:11;;;;;;;8.57;6.27;;;2.00;99.90;;;;;;4946764;28;20422;-80
2020/12/26 10:50:37;;;;;;;8.03;5.30;;;2.20;99.90;;;;;;4949626;28;20422;-80
2020/12/26 10:53:03;;;;;;;8.00;6.33;;;2.10;99.90;;;;;;4968564;28;20413;-80
2020/12/26 10:55:29;;;;;;;11.80;6.27;;;2.20;99.90;;;;;;4933863;28;20198;-79
2020/12/26 10:57:54;;;;;;;6.87;5.77;;;2.20;99.90;;;;;;4965365;29;20199;-79
2020/12/26 11:00:27;;;;;;;5.83;5.20;;;2.30;99.90;;;;;;4965768;28;20214;-80
2020/12/26 11:02:53;;;;;;;5.43;4.50;;;2.20;99.90;;;;;;4948001;29;20426;-79
2020/12/26 11:05:19;;;;;;;5.57;4.40;;;2.10;99.90;;;;;;4947495;28;20399;-79
2020/12/26 11:07:45;;;;;;;6.73;4.70;;;1.90;99.90;;;;;;4979254;28;20198;-79
2020/12/26 11:10:13;;;;;;;8.17;5.30;;;2.30;99.90;;;;;;4981901;28;20270;-79
2020/12/26 11:12:39;;;;;;;11.17;5.97;;;2.00;99.90;;;;;;5014618;28;20443;-79
2020/12/26 11:15:08;;;;;;;7.50;5.50;;;1.90;99.90;;;;;;4988039;28;20458;-80
2020/12/26 11:17:35;;;;;;;10.83;6.63;;;1.80;99.90;;;;;;5027553;28;20536;-78
2020/12/26 11:20:01;;;;;;;7.47;5.70;;;2.00;99.90;;;;;;5020766;28;20488;-78
2020/12/26 11:22:27;;;;;;;8.17;6.73;;;1.80;99.90;;;;;;5001886;28;20555;-80
2020/12/26 11:24:52;;;;;;;10.70;5.90;;;1.90;99.90;;;;;;4980900;28;20233;-80
2020/12/26 11:27:18;;;;;;;5.63;4.60;;;2.10;99.90;;;;;;5000303;28;20196;-80
2020/12/26 11:29:44;;;;;;;13.03;8.67;;;1.90;99.90;;;;;;5003002;28;20220;-79
2020/12/26 11:32:11;;;;;;;9.53;5.40;;;1.90;99.90;;;;;;5020479;28;20184;-80
2020/12/26 11:34:38;;;;;;;6.63;4.97;;;2.00;99.90;;;;;;5004015;28;20597;-80
2020/12/26 11:37:08;;;;;;;8.90;6.10;;;1.90;99.90;;;;;;5037050;28;20918;-79
2020/12/26 11:39:33;;;;;;;6.33;4.80;;;2.00;99.90;;;;;;5024876;28;20469;-79
2020/12/26 11:42:01;;;;;;;7.00;6.40;;;1.90;99.90;;;;;;5025497;28;20463;-80
2020/12/26 11:44:27;;;;;;;11.83;7.63;;;2.10;99.90;;;;;;5007077;28;20185;-80
2020/12/26 11:46:56;;;;;;;6.33;4.67;;;2.40;99.90;;;;;;5037639;28;20466;-80
2020/12/26 11:49:23;;;;;;;8.83;4.87;;;2.50;99.90;;;;;;5028456;28;20157;-80
2020/12/26 11:51:52;;;;;;;9.53;5.13;;;2.40;99.90;;;;;;5044838;28;20456;-80
2020/12/26 11:54:18;;;;;;;14.03;5.23;;;2.40;99.90;;;;;;5028327;28;20409;-79
2020/12/26 11:56:44;;;;;;;7.77;5.50;;;2.30;99.90;;;;;;5056196;28;20380;-79
2020/12/26 11:59:10;;;;;;;5.90;5.07;;;2.10;99.90;;;;;;5048514;28;20206;-80
2020/12/26 12:01:37;;;;;;;7.73;6.83;;;2.50;99.90;;;;;;5067044;28;20156;-79
2020/12/26 12:04:03;;;;;;;8.10;6.20;;;2.40;99.90;;;;;;5066834;28;20386;-80
2020/12/26 12:06:29;;;;;;;6.50;5.43;;;2.50;99.90;;;;;;5066429;28;20373;-80
2020/12/26 12:08:55;;;;;;;8.00;5.90;;;2.70;99.90;;;;;;5048177;28;20198;-80
2020/12/26 12:11:21;;;;;;;15.83;8.43;;;2.90;99.90;;;;;;5065964;28;20163;-80
2020/12/26 12:13:48;;;;;;;8.30;5.80;;;3.10;99.90;;;;;;5066158;28;20874;-80
2020/12/26 12:16:14;;;;;;;8.50;5.83;;;2.90;99.90;;;;;;5058591;28;20402;-80
2020/12/26 12:18:40;;;;;;;10.60;6.43;;;2.70;99.90;;;;;;5062388;28;20403;-80
2020/12/26 12:21:06;;;;;;;9.10;6.70;;;2.80;99.90;;;;;;5061498;28;20254;-80
2020/12/26 12:23:32;;;;;;;25.93;6.63;;;2.40;99.90;;;;;;5037320;28;20383;-80
2020/12/26 12:25:58;;;;;;;7.50;4.60;;;2.80;99.90;;;;;;5004709;28;20185;-80
2020/12/26 12:28:24;;;;;;;7.27;5.63;;;2.60;99.90;;;;;;5021015;28;20200;-80
2020/12/26 12:30:50;;;;;;;13.10;6.77;;;2.70;99.90;;;;;;5021616;28;20409;-80
2020/12/26 12:33:16;;;;;;;11.97;6.17;;;2.70;99.90;;;;;;5038517;28;20185;-80
2020/12/26 12:35:41;;;;;;;15.40;8.17;;;2.80;99.90;;;;;;5006505;28;20408;-80
2020/12/26 12:38:11;;;;;;;13.43;9.40;;;2.60;99.90;;;;;;5019719;28;20297;-80
2020/12/26 12:40:37;;;;;;;16.37;8.17;;;2.70;99.90;;;;;;5017940;28;20475;-80
2020/12/26 12:43:04;;;;;;;14.40;8.57;;;2.90;99.90;;;;;;5045354;28;20401;-78
2020/12/26 12:45:49;;;;;;;13.60;7.40;;;3.10;99.90;;;;;;5008805;28;20321;-77
2020/12/26 12:48:15;;;;;;;15.17;8.40;;;3.30;99.90;;;;;;4994992;28;20410;-77
2020/12/26 12:50:41;;;;;;;31.83;9.40;;;3.00;99.90;;;;;;4985697;28;20640;-80
2020/12/26 12:53:08;;;;;;;16.60;9.93;;;3.10;99.90;;;;;;4973215;28;20249;-79
2020/12/26 12:55:34;;;;;;;24.40;12.07;;;3.00;99.90;;;;;;5041351;28;20188;-80
2020/12/26 12:57:59;;;;;;;13.53;9.93;;;2.80;99.90;;;;;;5019017;28;20420;-80
2020/12/26 13:00:25;;;;;;;13.00;9.90;;;3.10;99.90;;;;;;5002228;28;20221;-80
2020/12/26 13:02:51;;;;;;;18.40;8.73;;;2.80;99.90;;;;;;5002903;28;20635;-80